Time;durP1;ratioP1;P1;durP2;ratioP2;P2;SDS_P1;SDS_P2;PMS_P1;PMS_P2;Temp;Humidity;BMP_temperature;BMP_pressure;BME280_temperature;BME280_humidity;BME280_pressure;Samples;Min_cycle;Max_cycle;Signal;HPM_P1;HPM_P2
2022/06/01 00:02:00;;;;;;;4.13;2.53;;;;;;;14.10;78.25;93647.88;5027124;28;20045;-49
2022/06/01 00:04:25;;;;;;;6.93;2.58;;;;;;;14.11;77.47;93649.38;5027963;28;20457;-49
2022/06/01 00:06:51;;;;;;;7.28;2.97;;;;;;;14.22;76.41;93643.38;5028270;28;20022;-50
2022/06/01 00:09:17;;;;;;;4.57;2.90;;;;;;;14.23;75.25;93640.00;5027894;28;20029;-49
2022/06/01 00:11:42;;;;;;;11.40;2.75;;;;;;;14.26;75.75;93635.38;5028048;28;20106;-49
2022/06/01 00:14:08;;;;;;;3.47;2.80;;;;;;;14.18;76.00;93635.44;5027796;28;20048;-48
2022/06/01 00:16:33;;;;;;;6.65;3.35;;;;;;;14.19;76.17;93636.16;5028042;28;20063;-49
2022/06/01 00:18:58;;;;;;;7.35;4.00;;;;;;;13.93;77.36;93631.19;5028065;28;20098;-50
2022/06/01 00:21:24;;;;;;;10.02;4.85;;;;;;;13.99;78.25;93618.53;5027655;28;20033;-49
2022/06/01 00:23:50;;;;;;;21.75;5.05;;;;;;;14.05;78.29;93616.28;5028050;28;20030;-49
2022/06/01 00:26:15;;;;;;;19.63;4.93;;;;;;;14.13;78.10;93621.78;5027679;28;20086;-48
2022/06/01 00:28:41;;;;;;;20.00;4.82;;;;;;;14.23;77.74;93617.03;5027940;28;20074;-48
2022/06/01 00:31:06;;;;;;;45.17;5.63;;;;;;;14.15;76.93;93611.56;5027903;28;20098;-49
2022/06/01 00:33:32;;;;;;;10.75;4.30;;;;;;;14.09;77.74;93613.09;5027753;28;20064;-49
2022/06/01 00:35:57;;;;;;;95.35;7.88;;;;;;;14.14;78.04;93609.38;5027884;28;20535;-48
2022/06/01 00:38:23;;;;;;;112.00;9.48;;;;;;;14.15;78.23;93605.28;5027808;28;20022;-49
2022/06/01 00:40:48;;;;;;;23.10;6.63;;;;;;;14.01;78.03;93604.13;5027787;28;20478;-48
2022/06/01 00:43:23;;;;;;;65.43;7.85;;;;;;;14.02;77.98;93595.22;5027457;28;20498;-48
2022/06/01 00:45:49;;;;;;;71.57;6.80;;;;;;;14.00;78.13;93597.06;5027486;28;20573;-49
2022/06/01 00:48:15;;;;;;;70.43;8.50;;;;;;;13.72;79.43;93597.47;5027393;28;20037;-50
2022/06/01 00:50:42;;;;;;;73.82;5.70;;;;;;;13.75;80.36;93588.03;5027400;28;20053;-49
2022/06/01 00:53:09;;;;;;;11.32;4.93;;;;;;;13.92;77.92;93591.59;5027312;28;20493;-50
2022/06/01 00:55:42;;;;;;;10.50;4.25;;;;;;;13.96;77.07;93585.63;5026409;28;20051;-50
2022/06/01 00:58:13;;;;;;;24.08;3.80;;;;;;;13.88;75.49;93584.97;5026424;28;20036;-50
2022/06/01 01:00:40;;;;;;;21.65;4.03;;;;;;;13.76;76.12;93584.69;5026053;28;20030;-48
2022/06/01 01:03:10;;;;;;;21.58;3.55;;;;;;;13.78;76.90;93578.56;5027056;28;20045;-49
2022/06/01 01:05:37;;;;;;;10.93;3.22;;;;;;;13.66;77.28;93578.28;5027215;28;20498;-49
2022/06/01 01:08:04;;;;;;;43.80;4.63;;;;;;;13.48;78.00;93577.47;5025939;28;20029;-48
2022/06/01 01:10:30;;;;;;;103.93;7.10;;;;;;;13.47;78.37;93586.38;5027383;28;20036;-49
2022/06/01 01:12:56;;;;;;;24.75;3.28;;;;;;;13.55;77.97;93573.19;5027269;28;20029;-47
2022/06/01 01:15:24;;;;;;;25.40;3.88;;;;;;;13.64;77.47;93570.50;5029035;28;20072;-51
2022/06/01 01:17:50;;;;;;;14.90;3.10;;;;;;;13.63;77.47;93568.31;5030599;28;20062;-48
2022/06/01 01:20:16;;;;;;;57.53;4.95;;;;;;;13.45;77.14;93553.63;5030516;28;20030;-49
2022/06/01 01:22:54;;;;;;;42.78;4.30;;;;;;;13.56;76.67;93572.63;5030469;28;20021;-49
2022/06/01 01:25:31;;;;;;;42.92;16.50;;;;;;;13.58;77.32;93581.09;5030463;28;20520;-49
2022/06/01 01:27:59;;;;;;;25.95;7.28;;;;;;;13.54;77.25;93586.31;5029247;28;20086;-48
2022/06/01 01:30:26;;;;;;;7.63;3.33;;;;;;;13.46;76.04;93569.00;5029135;28;20057;-49
2022/06/01 01:32:52;;;;;;;3.03;2.75;;;;;;;13.29;75.41;93579.25;5030518;28;20061;-48
2022/06/01 01:35:19;;;;;;;23.08;14.43;;;;;;;13.31;75.65;93580.19;5030285;28;20029;-49
2022/06/01 01:37:45;;;;;;;10.85;6.95;;;;;;;13.31;75.43;93579.44;5030512;28;20056;-49
2022/06/01 01:40:11;;;;;;;16.85;6.25;;;;;;;13.21;76.51;93575.81;5030260;28;20032;-49
2022/06/01 01:42:36;;;;;;;15.10;5.68;;;;;;;12.97;79.24;93577.19;5030464;28;20021;-49
2022/06/01 01:45:15;;;;;;;21.55;4.03;;;;;;;12.91;79.52;93576.66;5030446;28;20021;-52
2022/06/01 01:47:41;;;;;;;18.95;3.85;;;;;;;12.99;80.03;93573.84;5030475;28;20026;-49
2022/06/01 01:50:10;;;;;;;26.90;5.45;;;;;;;13.03;80.81;93577.72;5030052;28;20415;-49
2022/06/01 01:52:36;;;;;;;17.60;3.88;;;;;;;13.14;80.68;93571.03;5029963;28;20025;-48
2022/06/01 01:55:08;;;;;;;20.67;4.40;;;;;;;13.25;79.34;93571.34;5030360;28;20444;-47
2022/06/01 01:57:51;;;;;;;14.48;3.35;;;;;;;13.21;78.78;93581.34;5030075;28;20114;-50
2022/06/01 02:00:21;;;;;;;5.00;3.05;;;;;;;13.17;79.31;93575.44;5029921;28;20089;-49
2022/06/01 02:03:05;;;;;;;7.43;4.07;;;;;;;13.16;78.38;93579.53;5029862;28;20053;-49
2022/06/01 02:06:04;;;;;;;19.95;8.45;;;;;;;13.26;76.81;93575.59;5030033;28;20037;-49
2022/06/01 02:08:35;;;;;;;23.48;5.95;;;;;;;13.19;75.33;93579.13;5030185;28;20049;-49
2022/06/01 02:14:08;;;;;;;14.23;3.97;;;;;;;12.89;75.93;93582.00;5030090;28;20028;-48
2022/06/01 02:16:38;;;;;;;28.45;5.05;;;;;;;12.80;76.60;93572.25;5028776;28;20108;-51
2022/06/01 02:19:07;;;;;;;30.63;5.78;;;;;;;12.59;77.92;93576.59;5030048;28;20049;-51
2022/06/01 02:21:32;;;;;;;36.08;7.95;;;;;;;12.33;78.76;93561.16;5028764;28;20045;-51
2022/06/01 02:23:59;;;;;;;66.47;10.80;;;;;;;12.43;79.90;93577.94;5028319;28;20532;-48
2022/06/01 02:26:25;;;;;;;38.63;10.90;;;;;;;12.62;79.93;93573.44;5029242;28;20049;-50
2022/06/01 02:28:56;;;;;;;35.92;5.75;;;;;;;12.68;79.76;93581.53;5029588;28;20028;-49
2022/06/01 02:31:22;;;;;;;72.60;8.05;;;;;;;12.67;79.54;93580.06;5028320;28;20732;-51
2022/06/01 02:33:49;;;;;;;38.10;6.00;;;;;;;12.80;79.91;93577.81;5028211;28;20032;-48
2022/06/01 02:36:16;;;;;;;69.13;6.40;;;;;;;12.70;79.81;93578.94;5028216;28;20096;-50
2022/06/01 02:38:50;;;;;;;16.13;6.03;;;;;;;12.68;80.11;93585.06;5029325;28;20482;-49
2022/06/01 02:44:01;;;;;;;93.57;15.93;;;;;;;12.72;78.77;93568.03;5029636;28;20033;-49
2022/06/01 02:46:27;;;;;;;137.77;24.73;;;;;;;12.66;80.20;93573.81;5029413;28;20022;-52
2022/06/01 02:48:53;;;;;;;103.10;16.42;;;;;;;12.69;78.89;93566.41;5029487;28;20033;-52
2022/06/01 02:51:19;;;;;;;64.90;13.05;;;;;;;12.79;77.73;93578.38;5029323;28;20405;-49
2022/06/01 02:53:45;;;;;;;66.32;12.40;;;;;;;12.79;77.68;93578.38;5029339;28;20108;-50
2022/06/01 02:56:11;;;;;;;80.53;10.57;;;;;;;12.76;78.06;93585.03;5028968;28;20032;-50
2022/06/01 02:58:37;;;;;;;50.42;10.65;;;;;;;12.72;78.29;93582.63;5028680;28;20456;-50
2022/06/01 03:01:03;;;;;;;67.55;12.63;;;;;;;12.70;78.66;93584.50;5028947;28;20478;-50
2022/06/01 03:03:30;;;;;;;71.07;12.55;;;;;;;12.65;78.61;93586.16;5028691;28;20056;-51
2022/06/01 03:05:56;;;;;;;92.30;32.55;;;;;;;12.55;79.61;93584.53;5028907;28;20025;-49
2022/06/01 03:08:21;;;;;;;37.20;13.27;;;;;;;12.57;78.99;93581.94;5029175;28;20033;-50
2022/06/01 03:10:48;;;;;;;23.17;4.78;;;;;;;12.52;79.21;93583.63;5029096;28;20021;-49
2022/06/01 03:13:14;;;;;;;36.25;6.18;;;;;;;12.51;79.61;93579.41;5028751;28;20022;-49
2022/06/01 03:15:39;;;;;;;52.75;5.07;;;;;;;12.36;80.19;93567.63;5029024;28;20049;-51
2022/06/01 03:18:05;;;;;;;65.40;4.13;;;;;;;12.62;79.00;93587.31;5028679;28;20068;-50
2022/06/01 03:20:33;;;;;;;67.47;3.90;;;;;;;12.70;78.27;93590.03;5028664;28;20018;-56
2022/06/01 03:22:59;;;;;;;39.33;2.80;;;;;;;12.74;77.30;93590.38;5028631;28;20030;-50
2022/06/01 03:25:25;;;;;;;15.18;6.45;;;;;;;12.75;77.37;93586.34;5028827;28;20032;-50
2022/06/01 03:27:52;;;;;;;18.13;6.90;;;;;;;12.65;77.18;93588.19;5028578;28;20029;-51
2022/06/01 03:30:18;;;;;;;15.18;6.55;;;;;;;12.61;77.00;93580.28;5028499;28;20037;-52
2022/06/01 03:32:45;;;;;;;47.20;22.38;;;;;;;12.58;77.51;93586.91;5028413;28;20029;-49
2022/06/01 03:35:12;;;;;;;43.65;22.02;;;;;;;12.62;77.13;93583.78;5028714;28;20021;-49
2022/06/01 03:37:37;;;;;;;20.20;14.95;;;;;;;12.54;78.07;93588.63;5027786;28;20037;-48
2022/06/01 03:40:04;;;;;;;23.45;13.38;;;;;;;12.61;77.39;93593.38;5028398;28;20454;-51
2022/06/01 03:42:30;;;;;;;13.27;6.07;;;;;;;12.56;78.45;93583.97;5028629;28;20075;-49
2022/06/01 03:47:40;;;;;;;22.05;8.38;;;;;;;12.72;78.08;93592.97;5028604;28;20059;-51
2022/06/01 03:50:07;;;;;;;16.83;11.27;;;;;;;12.83;77.05;93590.53;5028471;28;20029;-48
2022/06/01 03:52:32;;;;;;;20.13;11.48;;;;;;;12.88;76.55;93588.88;5028102;28;20065;-51
2022/06/01 03:54:57;;;;;;;33.30;9.15;;;;;;;12.66;77.59;93590.44;5028138;28;20234;-49
2022/06/01 03:57:23;;;;;;;4.78;3.70;;;;;;;12.54;77.49;93594.88;5028406;28;20025;-49
2022/06/01 03:59:48;;;;;;;16.92;3.58;;;;;;;12.74;77.38;93590.38;5028369;28;20022;-51
2022/06/01 04:02:14;;;;;;;8.63;3.17;;;;;;;12.82;76.74;93599.44;5027746;28;20038;-50
2022/06/01 04:04:39;;;;;;;27.05;11.05;;;;;;;12.88;77.27;93595.16;5028350;28;20405;-49
2022/06/01 04:07:05;;;;;;;25.10;7.68;;;;;;;12.97;77.84;93602.13;5028027;28;20521;-49
2022/06/01 04:09:30;;;;;;;35.20;6.32;;;;;;;12.93;77.97;93593.44;5028314;28;20021;-49
2022/06/01 04:11:56;;;;;;;14.00;4.75;;;;;;;12.90;78.01;93598.09;5027867;28;20545;-55
2022/06/01 04:14:22;;;;;;;7.97;5.13;;;;;;;13.05;78.25;93599.34;5028201;28;20030;-50
2022/06/01 04:16:48;;;;;;;35.47;5.75;;;;;;;13.20;76.49;93602.03;5028076;28;20025;-51
2022/06/01 04:19:14;;;;;;;19.42;4.45;;;;;;;13.32;76.74;93606.59;5027875;28;20113;-49
2022/06/01 04:21:41;;;;;;;30.25;3.72;;;;;;;13.44;76.04;93609.69;5028057;28;20074;-50
2022/06/01 04:24:11;;;;;;;8.70;4.13;;;;;;;13.61;76.91;93595.88;5028025;28;20029;-51
2022/06/01 04:26:36;;;;;;;9.50;5.50;;;;;;;13.64;76.12;93603.81;5028015;28;20041;-53
2022/06/01 04:29:02;;;;;;;22.45;8.13;;;;;;;13.64;75.75;93601.03;5028003;28;20434;-50
2022/06/01 04:31:27;;;;;;;14.15;10.82;;;;;;;13.65;75.97;93608.06;5027960;28;20022;-49
2022/06/01 04:33:53;;;;;;;26.50;18.70;;;;;;;13.79;75.87;93600.22;5027907;28;20453;-50
2022/06/01 04:36:18;;;;;;;28.10;24.88;;;;;;;13.82;76.39;93604.63;5027595;28;20025;-50
2022/06/01 04:38:44;;;;;;;21.60;19.30;;;;;;;13.80;76.40;93598.88;5027869;28;20048;-50
2022/06/01 04:41:09;;;;;;;28.02;9.75;;;;;;;13.90;76.40;93602.53;5027747;28;20025;-48
2022/06/01 04:43:35;;;;;;;6.63;3.92;;;;;;;13.97;75.75;93598.94;5027774;28;20555;-52
2022/06/01 04:46:00;;;;;;;3.22;2.92;;;;;;;14.06;75.93;93606.66;5027760;28;20482;-49
2022/06/01 04:48:26;;;;;;;7.03;4.40;;;;;;;14.21;75.61;93605.78;5027225;28;20055;-49
2022/06/01 04:50:52;;;;;;;10.00;4.43;;;;;;;14.34;75.24;93609.03;5027402;28;20421;-51
2022/06/01 04:53:18;;;;;;;9.75;4.43;;;;;;;14.60;76.37;93615.25;5027195;28;20024;-50
2022/06/01 04:55:45;;;;;;;3.25;2.95;;;;;;;14.84;77.04;93620.75;5027329;28;20025;-50
2022/06/01 04:58:12;;;;;;;2.60;2.40;;;;;;;15.00;75.27;93616.50;5027540;28;20045;-52
2022/06/01 05:00:38;;;;;;;7.18;2.53;;;;;;;15.13;74.46;93623.75;5027134;28;20093;-50
2022/06/01 05:03:04;;;;;;;6.38;2.42;;;;;;;15.18;74.77;93620.00;5027029;28;20051;-49
2022/06/01 05:05:30;;;;;;;2.90;2.20;;;;;;;15.28;74.11;93618.00;5027438;28;20387;-51
2022/06/01 05:07:56;;;;;;;7.32;2.00;;;;;;;15.33;72.82;93625.38;5027155;28;20032;-50
2022/06/01 05:10:22;;;;;;;4.55;3.10;;;;;;;15.36;73.14;93620.69;5027115;28;20026;-52
2022/06/01 05:12:48;;;;;;;2.72;2.22;;;;;;;15.16;74.17;93601.09;5027049;28;20025;-50
2022/06/01 05:15:14;;;;;;;4.78;2.50;;;;;;;15.26;74.39;93622.66;5027117;28;20108;-50
2022/06/01 05:17:39;;;;;;;2.70;2.50;;;;;;;15.28;75.10;93628.38;5027074;28;20045;-49
2022/06/01 05:20:06;;;;;;;5.05;2.67;;;;;;;15.29;76.42;93624.31;5027259;28;20092;-48
2022/06/01 05:22:31;;;;;;;2.90;2.70;;;;;;;15.33;76.10;93622.59;5027247;28;20029;-48
2022/06/01 05:24:56;;;;;;;6.18;4.03;;;;;;;15.35;75.81;93619.97;5026950;28;20032;-50
2022/06/01 05:27:22;;;;;;;3.15;2.85;;;;;;;15.30;76.57;93609.06;5026895;28;20021;-49
2022/06/01 05:29:48;;;;;;;7.28;4.18;;;;;;;15.24;76.71;93614.91;5027134;28;20026;-50
2022/06/01 05:32:13;;;;;;;5.38;3.80;;;;;;;15.32;77.10;93612.00;5026784;28;20429;-49
2022/06/01 05:34:38;;;;;;;8.45;4.30;;;;;;;15.46;77.38;93616.69;5027034;28;20051;-50
2022/06/01 05:37:04;;;;;;;7.35;4.40;;;;;;;15.61;77.66;93610.91;5026813;28;20072;-52
2022/06/01 05:39:30;;;;;;;5.82;3.53;;;;;;;15.70;77.76;93613.00;5026718;28;20032;-49
2022/06/01 05:41:55;;;;;;;5.90;4.07;;;;;;;15.73;77.77;93611.84;5027004;28;20025;-51
2022/06/01 05:44:21;;;;;;;4.90;3.83;;;;;;;15.83;78.18;93615.41;5026720;28;20509;-49
2022/06/01 05:46:46;;;;;;;6.57;3.45;;;;;;;15.80;77.28;93591.53;5026922;28;20026;-51
2022/06/01 05:49:13;;;;;;;4.40;3.63;;;;;;;15.99;77.94;93602.00;5025460;28;20085;-49
2022/06/01 05:51:39;;;;;;;5.75;4.55;;;;;;;16.06;78.95;93597.63;5026605;28;20068;-50
2022/06/01 05:54:04;;;;;;;10.93;6.25;;;;;;;16.18;79.11;93604.84;5026608;28;20059;-51
2022/06/01 05:56:30;;;;;;;12.68;6.57;;;;;;;16.24;79.14;93605.28;5026877;28;20034;-50
2022/06/01 05:58:55;;;;;;;12.43;6.95;;;;;;;16.35;79.09;93607.53;5025446;28;20044;-50
2022/06/01 06:01:23;;;;;;;13.57;7.95;;;;;;;16.45;79.87;93602.72;5029245;28;20021;-49
2022/06/01 06:03:49;;;;;;;16.40;8.27;;;;;;;16.57;78.01;93605.69;5029829;28;20049;-48
2022/06/01 06:06:15;;;;;;;9.90;8.27;;;;;;;16.64;79.15;93608.34;5030153;28;20025;-49
2022/06/01 06:08:45;;;;;;;11.38;8.43;;;;;;;16.80;79.13;93611.59;5028674;28;20078;-50
2022/06/01 06:11:12;;;;;;;11.77;7.95;;;;;;;16.90;78.79;93617.16;5029811;28;20105;-49
2022/06/01 06:13:37;;;;;;;16.80;13.48;;;;;;;16.80;77.90;93599.72;5029962;28;20026;-50
2022/06/01 06:16:03;;;;;;;25.23;13.52;;;;;;;16.93;79.63;93611.19;5029732;28;20021;-49
2022/06/01 06:18:29;;;;;;;16.73;10.57;;;;;;;17.07;81.02;93612.19;5029922;28;20026;-50
2022/06/01 06:20:55;;;;;;;13.75;8.57;;;;;;;17.20;78.48;93616.59;5029660;28;20036;-50
2022/06/01 06:23:20;;;;;;;10.15;7.93;;;;;;;17.06;79.79;93590.47;5029922;28;20067;-49
2022/06/01 06:25:46;;;;;;;15.00;7.72;;;;;;;17.22;79.86;93611.16;5029609;28;20680;-49
2022/06/01 06:28:11;;;;;;;10.52;7.13;;;;;;;17.29;80.58;93605.44;5029815;28;20021;-50
2022/06/01 06:30:38;;;;;;;10.73;7.93;;;;;;;17.50;80.62;93607.63;5029826;28;20555;-50
2022/06/01 06:33:04;;;;;;;12.45;7.82;;;;;;;17.64;80.20;93580.69;5029663;28;20126;-49
2022/06/01 06:35:29;;;;;;;7.47;6.78;;;;;;;18.23;75.45;93604.31;5029464;28;20029;-50
2022/06/01 06:37:55;;;;;;;8.90;6.45;;;;;;;18.68;74.47;93603.19;5029473;28;20029;-50
2022/06/01 06:40:20;;;;;;;18.73;5.78;;;;;;;19.37;71.69;93606.38;5029393;28;20022;-50
2022/06/01 06:42:46;;;;;;;8.05;5.68;;;;;;;19.98;67.85;93607.38;5029367;28;20022;-48
2022/06/01 06:45:12;;;;;;;8.93;5.18;;;;;;;20.39;67.25;93600.13;5029334;28;20028;-49
2022/06/01 06:47:37;;;;;;;8.25;5.70;;;;;;;20.57;65.85;93604.03;5029305;28;20025;-48
2022/06/01 06:50:07;;;;;;;8.13;4.60;;;;;;;20.48;64.58;93598.53;5029240;28;20495;-49
2022/06/01 06:52:32;;;;;;;5.80;5.20;;;;;;;20.18;65.79;93600.22;5029413;28;20478;-49
2022/06/01 06:54:58;;;;;;;9.60;5.15;;;;;;;20.18;65.50;93594.59;5029461;28;20188;-49
2022/06/01 06:57:23;;;;;;;6.05;5.18;;;;;;;20.18;67.28;93592.50;5029072;28;20025;-48
2022/06/01 06:59:49;;;;;;;5.60;5.00;;;;;;;20.25;67.53;93600.00;5028948;28;20033;-49
2022/06/01 07:02:18;;;;;;;9.13;5.35;;;;;;;20.51;66.33;93605.72;5028551;28;20041;-49
2022/06/01 07:04:45;;;;;;;8.35;4.95;;;;;;;20.89;64.18;93602.38;5029042;28;20025;-48
2022/06/01 07:07:10;;;;;;;7.47;5.30;;;;;;;21.34;62.61;93594.44;5028992;28;20025;-49
2022/06/01 07:09:36;;;;;;;7.13;4.43;;;;;;;21.79;61.80;93589.94;5029164;28;20029;-48
2022/06/01 07:12:02;;;;;;;6.47;4.00;;;;;;;22.24;58.96;93593.84;5029005;28;20517;-49
2022/06/01 07:14:28;;;;;;;8.00;4.22;;;;;;;22.65;57.50;93591.09;5028736;28;20502;-49
2022/06/01 07:16:53;;;;;;;5.25;3.88;;;;;;;23.08;56.52;93593.97;5028745;28;20036;-49
2022/06/01 07:19:19;;;;;;;5.43;3.40;;;;;;;23.84;55.98;93589.28;5028692;28;20033;-49
2022/06/01 07:21:44;;;;;;;6.75;3.45;;;;;;;24.98;51.80;93581.03;5028717;28;20026;-48
2022/06/01 07:24:10;;;;;;;7.85;3.08;;;;;;;26.26;48.10;93583.47;5028909;28;20105;-49
2022/06/01 07:26:42;;;;;;;4.30;2.70;;;;;;;27.90;44.25;93580.69;5028618;28;20024;-48
2022/06/01 07:29:08;;;;;;;7.03;3.10;;;;;;;29.34;40.73;93581.44;5028540;28;20525;-48
2022/06/01 07:31:33;;;;;;;3.92;2.90;;;;;;;30.73;37.92;93584.06;5028859;28;20057;-49
2022/06/01 07:33:59;;;;;;;2.72;2.53;;;;;;;32.06;35.64;93582.34;5028706;28;20037;-47
2022/06/01 07:36:25;;;;;;;3.70;2.60;;;;;;;32.84;32.69;93582.78;5028732;28;20410;-47
2022/06/01 07:44:20;;;;;;;4.22;2.95;;;;;;;35.11;29.56;93579.81;5028361;28;20036;-46
2022/06/01 07:46:46;;;;;;;2.85;2.47;;;;;;;35.97;27.90;93573.59;5028612;28;20028;-46
2022/06/01 07:49:11;;;;;;;3.08;2.40;;;;;;;36.14;27.79;93583.66;5028339;28;20112;-46
2022/06/01 07:51:38;;;;;;;2.67;2.15;;;;;;;36.63;27.33;93585.06;5028255;28;20127;-48
2022/06/01 07:54:05;;;;;;;6.05;2.60;;;;;;;36.45;26.07;93582.94;5028118;28;20040;-47
2022/06/01 07:56:31;;;;;;;4.47;2.40;;;;;;;36.45;25.66;93582.25;5028451;28;20030;-47
2022/06/01 07:58:56;;;;;;;6.53;2.50;;;;;;;36.80;27.36;93589.34;5028361;28;20055;-45
2022/06/01 08:01:25;;;;;;;5.35;2.28;;;;;;;37.21;25.22;93590.69;5027813;28;20017;-47
2022/06/01 08:03:56;;;;;;;4.00;2.67;;;;;;;37.64;25.39;93579.00;5027929;28;20068;-46
2022/06/01 08:06:21;;;;;;;4.63;2.70;;;;;;;37.90;24.90;93581.75;5026785;28;20410;-46
2022/06/01 08:31:15;;;;;;;3.13;1.77;;;;;;;40.27;22.88;93595.03;5128465;27;20625;-53
2022/06/01 08:33:41;;;;;;;4.00;1.98;;;;;;;40.22;22.37;93585.72;5128393;27;20106;-51
2022/06/01 08:36:06;;;;;;;4.60;2.03;;;;;;;40.70;21.97;93578.41;5128687;27;20019;-51
2022/06/01 08:38:32;;;;;;;2.50;1.95;;;;;;;40.71;21.50;93571.91;5128139;27;20100;-49
2022/06/01 08:41:03;;;;;;;3.35;1.80;;;;;;;40.93;21.42;93575.88;5128555;27;20035;-49
2022/06/01 08:43:41;;;;;;;2.08;1.70;;;;;;;41.06;22.38;93577.78;5128267;27;20027;-48
2022/06/01 08:46:07;;;;;;;3.03;1.50;;;;;;;41.10;20.13;93580.59;5127082;28;20111;-48
2022/06/01 08:48:42;;;;;;;4.43;1.50;;;;;;;41.27;21.47;93581.75;5126947;28;20119;-47
2022/06/01 08:51:08;;;;;;;4.40;1.98;;;;;;;41.31;20.29;93580.94;5127213;28;20020;-49
2022/06/01 08:53:34;;;;;;;3.70;1.73;;;;;;;41.26;21.93;93580.31;5126512;28;20019;-48
2022/06/01 08:56:09;;;;;;;3.35;1.90;;;;;;;41.40;19.71;93568.44;5127966;27;20027;-47
2022/06/01 08:59:11;;;;;;;2.53;1.60;;;;;;;41.40;19.70;93580.03;5126719;28;20031;-48
2022/06/01 09:01:44;;;;;;;2.95;1.80;;;;;;;41.23;20.22;93575.28;5128178;27;20031;-47
2022/06/01 09:04:30;;;;;;;3.80;2.10;;;;;;;41.39;22.13;93575.69;5128143;27;20028;-48
2022/06/01 09:07:13;;;;;;;3.00;1.75;;;;;;;40.73;19.21;93577.66;5128205;27;20035;-48
2022/06/01 09:10:20;;;;;;;5.80;1.80;;;;;;;40.33;21.72;93574.72;5126559;28;20019;-47
2022/06/01 09:12:48;;;;;;;6.82;1.75;;;;;;;40.39;21.50;93568.81;5126840;28;20023;-49
2022/06/01 09:15:25;;;;;;;2.00;1.38;;;;;;;40.50;19.97;93575.91;5126411;28;20109;-47
2022/06/01 09:17:51;;;;;;;4.50;1.73;;;;;;;40.16;19.93;93573.53;5126395;28;20034;-48
2022/06/01 09:23:03;;;;;;;3.65;1.60;;;;;;;40.20;23.01;93568.38;5127526;28;20092;-51
2022/06/01 09:25:38;;;;;;;5.72;1.55;;;;;;;40.49;20.48;93565.78;5127459;27;20023;-49
2022/06/01 09:28:27;;;;;;;2.78;1.63;;;;;;;41.22;20.26;93565.88;5127104;27;20106;-48
2022/06/01 09:31:02;;;;;;;3.75;1.35;;;;;;;41.46;18.15;93568.31;5121030;27;20108;-49
2022/06/01 09:33:30;;;;;;;8.15;1.60;;;;;;;41.69;19.47;93568.56;5113491;28;20066;-49
2022/06/01 09:36:01;;;;;;;4.13;1.60;;;;;;;41.64;18.64;93567.19;5113822;28;20020;-48
2022/06/01 09:38:54;;;;;;;5.47;1.30;;;;;;;41.55;17.98;93563.03;5113364;28;20023;-47
2022/06/01 09:41:27;;;;;;;3.08;1.52;;;;;;;41.69;19.82;93559.16;5111593;28;20042;-48
2022/06/01 09:44:06;;;;;;;4.30;1.25;;;;;;;41.86;17.47;93560.22;5113812;28;20031;-47
2022/06/01 09:46:35;;;;;;;1.65;1.10;;;;;;;42.26;17.57;93550.56;5113635;28;20028;-48
2022/06/01 09:49:19;;;;;;;3.03;1.20;;;;;;;42.51;17.03;93565.25;5113634;28;20027;-47
2022/06/01 09:51:46;;;;;;;3.45;1.33;;;;;;;42.11;18.11;93556.03;5113371;28;20561;-50
2022/06/01 09:54:26;;;;;;;2.58;1.45;;;;;;;41.72;19.56;93558.34;5113223;28;20023;-47
2022/06/01 09:56:52;;;;;;;3.25;1.50;;;;;;;41.71;16.89;93553.31;5113496;28;20019;-49
2022/06/01 10:08:14;;;;;;;3.40;1.10;;;;;;;41.84;19.56;93548.66;5113031;28;20568;-47
2022/06/01 10:10:41;;;;;;;5.03;1.50;;;;;;;41.58;19.79;93553.53;5111693;28;20023;-46
2022/06/01 10:13:07;;;;;;;3.45;1.13;;;;;;;41.74;19.37;93546.69;5111674;28;20032;-47
2022/06/01 10:15:51;;;;;;;1.48;1.10;;;;;;;41.89;19.01;93547.81;5112774;28;20028;-47
2022/06/01 10:18:29;;;;;;;5.90;1.70;;;;;;;41.89;18.24;93544.22;5113103;28;20026;-46
2022/06/01 10:20:58;;;;;;;2.80;1.50;;;;;;;41.96;17.96;93554.19;5112482;28;20488;-48
2022/06/01 10:23:49;;;;;;;8.05;2.35;;;;;;;42.06;18.13;93551.09;5112300;28;20059;-50
2022/06/01 10:26:29;;;;;;;1.33;1.10;;;;;;;42.07;17.88;93544.50;5111563;28;20049;-47
2022/06/01 10:29:09;;;;;;;3.05;1.17;;;;;;;41.62;18.90;93552.03;5111945;28;20034;-46
2022/06/01 10:31:38;;;;;;;3.60;1.10;;;;;;;41.74;16.05;93538.00;5111359;28;20500;-47
2022/06/01 10:34:25;;;;;;;2.28;1.10;;;;;;;41.44;17.26;93535.75;5111695;28;20462;-48
2022/06/01 10:36:55;;;;;;;2.97;1.02;;;;;;;41.67;18.29;93536.00;5111273;28;20027;-48
2022/06/01 10:39:47;;;;;;;4.25;1.33;;;;;;;41.83;18.00;93533.44;5112248;28;20066;-48
2022/06/01 10:42:17;;;;;;;5.93;1.00;;;;;;;41.99;18.07;93533.09;5110263;28;20106;-47
2022/06/01 10:45:12;;;;;;;3.38;1.05;;;;;;;42.06;17.76;93540.16;5112609;28;20051;-46
2022/06/01 10:47:56;;;;;;;8.05;1.52;;;;;;;42.01;16.25;93538.84;5109343;28;20039;-46
2022/06/01 10:50:32;;;;;;;5.70;1.20;;;;;;;41.60;16.56;93534.69;5112132;28;20031;-46
2022/06/01 10:53:06;;;;;;;4.15;1.10;;;;;;;41.20;18.09;93534.03;5110872;28;20027;-47
2022/06/01 10:55:35;;;;;;;4.10;0.95;;;;;;;41.03;17.47;93532.22;5111150;28;20461;-47
2022/06/01 10:58:01;;;;;;;2.65;0.90;;;;;;;40.06;18.89;93531.03;5110763;28;20473;-47
2022/06/01 11:00:31;;;;;;;9.25;1.40;;;;;;;38.51;20.37;93542.31;5110543;28;20089;-48
2022/06/01 11:03:21;;;;;;;1.88;1.42;;;;;;;36.88;21.98;93542.59;5110683;28;20031;-47
2022/06/01 11:06:01;;;;;;;3.13;1.17;;;;;;;35.99;22.67;93536.22;5112119;28;20020;-47
2022/06/01 11:08:45;;;;;;;5.25;1.23;;;;;;;36.33;21.57;93542.69;5111721;28;20483;-46
2022/06/01 11:11:14;;;;;;;2.20;0.90;;;;;;;36.41;22.20;93536.91;5111714;28;20024;-47
2022/06/01 11:13:52;;;;;;;;;;;;;;;36.56;21.42;93534.03;5112203;27;20065;-47
2022/06/01 11:16:38;;;;;;;5.90;1.05;;;;;;;36.58;21.58;93536.91;5111662;28;19908;-48
2022/06/01 11:19:18;;;;;;;7.38;1.30;;;;;;;35.92;21.91;93534.75;5111594;28;20023;-49
2022/06/01 11:21:52;;;;;;;4.03;1.20;;;;;;;35.47;21.29;93528.97;5110335;28;20031;-47
2022/06/01 11:24:47;;;;;;;4.80;1.13;;;;;;;34.95;24.90;93532.38;5110505;28;20035;-46
2022/06/01 11:27:23;;;;;;;1.35;1.00;;;;;;;34.95;21.92;93534.53;5093093;28;20035;-47
2022/06/01 11:30:14;;;;;;;1.35;1.25;;;;;;;34.92;23.04;93527.31;5111204;27;20043;-47
2022/06/01 11:32:59;;;;;;;2.67;1.15;;;;;;;34.49;26.96;93526.38;5110280;28;20023;-47
2022/06/01 11:35:38;;;;;;;2.88;1.20;;;;;;;33.86;25.85;93536.66;5110060;28;20492;-48
2022/06/01 11:38:18;;;;;;;2.28;1.08;;;;;;;33.05;26.80;93528.69;5111372;28;20031;-48
2022/06/01 11:40:57;;;;;;;3.33;1.50;;;;;;;32.50;26.90;93528.00;5111133;28;20028;-49
2022/06/01 11:43:36;;;;;;;2.40;1.30;;;;;;;32.68;25.55;93522.50;5092941;28;20492;-46
2022/06/01 11:46:17;;;;;;;2.92;1.20;;;;;;;32.76;27.59;93524.75;5109882;28;20024;-47
2022/06/01 11:48:49;;;;;;;14.07;2.58;;;;;;;32.72;29.88;93516.84;5109726;28;20066;-47
2022/06/01 11:51:17;;;;;;;3.67;1.27;;;;;;;32.65;30.10;93515.31;5109819;28;20041;-48
2022/06/01 11:54:10;;;;;;;5.82;1.50;;;;;;;32.46;31.46;93516.50;5111010;28;20031;-46
2022/06/01 11:56:52;;;;;;;5.88;1.20;;;;;;;32.43;30.77;93503.56;5103261;28;20042;-49
2022/06/01 11:59:27;;;;;;;5.32;1.42;;;;;;;31.97;30.06;93506.50;5111082;28;20027;-47
2022/06/01 12:02:42;;;;;;;4.50;1.33;;;;;;;31.94;32.67;93510.00;5110866;28;20027;-46
2022/06/01 12:05:11;;;;;;;4.05;1.38;;;;;;;31.72;30.86;93509.66;5098784;28;20048;-47
2022/06/01 12:07:41;;;;;;;2.38;1.00;;;;;;;31.54;30.58;93506.47;5111104;28;20028;-46
2022/06/01 12:10:15;;;;;;;6.57;1.50;;;;;;;31.48;32.93;93501.41;5109509;28;20024;-47
2022/06/01 12:13:03;;;;;;;5.45;1.40;;;;;;;31.37;32.88;93499.75;5110708;28;20548;-48
2022/06/01 12:15:38;;;;;;;3.13;1.35;;;;;;;31.30;33.26;93501.78;5110625;28;20032;-46
2022/06/01 12:18:12;;;;;;;2.47;1.33;;;;;;;31.08;31.23;93495.69;5110762;28;20031;-49
2022/06/01 12:20:38;;;;;;;5.07;1.50;;;;;;;30.99;31.51;93490.53;5110588;28;20031;-46
2022/06/01 12:28:53;;;;;;;4.38;1.60;;;;;;;30.92;34.77;93488.97;5110262;28;20069;-46
2022/06/01 12:31:26;;;;;;;2.35;1.42;;;;;;;30.94;35.10;93498.28;5109407;28;20035;-48
2022/06/01 12:34:18;;;;;;;14.35;1.90;;;;;;;30.92;33.32;93488.97;5110816;28;20028;-48
2022/06/01 12:37:23;;;;;;;1.88;1.35;;;;;;;30.80;32.23;93488.72;5110866;28;20104;-47